createdAt,value
2017-07-03T00:00:31.126Z,14.10
2017-07-03T00:03:03.051Z,14.20
2017-07-03T00:05:31.575Z,14.30
2017-07-03T00:08:00.099Z,14.30
2017-07-03T00:10:28.681Z,14.30
2017-07-03T00:12:59.655Z,14.40
2017-07-03T00:15:28.345Z,14.50
2017-07-03T00:17:56.858Z,14.60
2017-07-03T00:20:25.512Z,14.60
2017-07-03T00:22:53.993Z,14.60
2017-07-03T00:25:22.492Z,14.70
2017-07-03T00:27:50.980Z,14.70
2017-07-03T00:30:19.476Z,14.70
2017-07-03T00:32:48.061Z,14.60
2017-07-03T00:35:18.464Z,14.70
2017-07-03T00:37:47.046Z,14.80
2017-07-03T00:40:24.116Z,14.70
2017-07-03T00:42:52.593Z,14.80
2017-07-03T00:45:21.138Z,14.70
2017-07-03T00:47:52.633Z,14.80
2017-07-03T00:50:24.351Z,14.70
2017-07-03T00:53:08.560Z,14.70
2017-07-03T00:58:18.755Z,14.70
2017-07-03T01:00:47.318Z,14.70
2017-07-03T01:03:18.795Z,14.80
2017-07-03T01:05:47.285Z,14.80
2017-07-03T01:08:23.667Z,14.80
2017-07-03T01:10:52.717Z,14.80
2017-07-03T01:13:21.227Z,14.90
2017-07-03T01:15:49.997Z,14.90
2017-07-03T01:18:20.446Z,14.90
2017-07-03T01:20:48.911Z,14.90
2017-07-03T01:23:17.450Z,14.90
2017-07-03T01:25:46.149Z,15.00
2017-07-03T01:28:14.866Z,15.10
2017-07-03T01:30:43.374Z,15.40
2017-07-03T01:33:11.836Z,15.40
2017-07-03T01:35:40.314Z,15.30
2017-07-03T01:38:09.973Z,15.30
2017-07-03T01:40:38.544Z,15.20
2017-07-03T01:43:07.017Z,15.20
2017-07-03T01:45:35.571Z,15.20
2017-07-03T01:48:04.053Z,15.20
2017-07-03T01:50:32.595Z,15.10
2017-07-03T01:53:01.050Z,15.10
2017-07-03T01:55:29.630Z,15.10
2017-07-03T01:57:58.102Z,15.10
2017-07-03T02:00:27.124Z,15.20
2017-07-03T02:02:55.656Z,15.10
2017-07-03T02:05:24.153Z,15.20
2017-07-03T02:07:52.662Z,15.20
2017-07-03T02:10:21.234Z,15.20
2017-07-03T02:12:49.868Z,15.10
2017-07-03T02:15:18.405Z,15.10
2017-07-03T02:17:46.891Z,15.10
2017-07-03T02:20:15.495Z,15.10
2017-07-03T02:22:44.041Z,15.10
2017-07-03T02:25:23.840Z,15.20
2017-07-03T02:27:52.602Z,15.20
2017-07-03T02:30:21.179Z,15.10
2017-07-03T02:32:49.659Z,15.10
2017-07-03T02:35:18.174Z,15.00
2017-07-03T02:37:46.709Z,14.90
2017-07-03T02:40:15.535Z,15.00
2017-07-03T02:42:44.035Z,15.00
2017-07-03T02:45:12.508Z,14.90
2017-07-03T02:47:42.545Z,14.90
2017-07-03T02:50:11.121Z,15.00
2017-07-03T02:52:39.646Z,15.00
2017-07-03T02:55:08.186Z,15.00
2017-07-03T02:57:36.703Z,15.00
2017-07-03T03:00:04.842Z,15.00
2017-07-03T03:02:33.324Z,15.00
2017-07-03T03:05:01.647Z,14.90
2017-07-03T03:07:32.645Z,14.90
2017-07-03T03:10:01.122Z,14.90
2017-07-03T03:12:29.926Z,14.90
2017-07-03T03:14:58.418Z,14.90
2017-07-03T03:17:26.693Z,14.80
2017-07-03T03:19:55.259Z,14.90
2017-07-03T03:22:23.804Z,14.90
2017-07-03T03:24:52.289Z,14.90
2017-07-03T03:27:20.809Z,15.00
2017-07-03T03:29:51.388Z,14.90
2017-07-03T03:32:19.866Z,15.00
2017-07-03T03:34:48.420Z,14.90
2017-07-03T03:37:31.509Z,15.00
2017-07-03T03:40:00.008Z,15.00
2017-07-03T03:42:28.538Z,15.00
2017-07-03T03:44:57.007Z,15.00
2017-07-03T03:47:36.851Z,15.10
2017-07-03T03:50:05.318Z,15.00
2017-07-03T03:52:36.494Z,15.00
2017-07-03T03:55:08.705Z,15.00
2017-07-03T03:57:37.187Z,15.10
2017-07-03T04:00:04.975Z,15.10
2017-07-03T04:02:33.477Z,15.10
2017-07-03T04:05:01.957Z,15.20
2017-07-03T04:07:30.443Z,15.20
2017-07-03T04:09:59.806Z,15.20
2017-07-03T04:12:28.536Z,15.10
2017-07-03T04:14:57.021Z,15.20
2017-07-03T04:17:25.582Z,15.30
2017-07-03T04:19:54.166Z,15.40
2017-07-03T04:22:23.467Z,15.40
2017-07-03T04:24:55.472Z,15.50
2017-07-03T04:27:23.957Z,15.50
2017-07-03T04:29:52.508Z,15.60
2017-07-03T04:32:21.066Z,15.70
2017-07-03T04:34:49.550Z,15.80
2017-07-03T04:37:18.080Z,15.90
2017-07-03T04:39:46.598Z,15.90
2017-07-03T04:42:15.082Z,16.00
2017-07-03T04:44:43.672Z,16.10
2017-07-03T04:47:12.451Z,16.20
2017-07-03T04:49:41.034Z,16.30
2017-07-03T04:52:09.541Z,16.30
2017-07-03T04:54:38.326Z,16.50
2017-07-03T04:57:06.799Z,16.50
2017-07-03T04:59:35.051Z,16.60
2017-07-03T05:02:03.628Z,16.60
2017-07-03T05:04:31.853Z,16.60
2017-07-03T05:07:00.327Z,16.50
2017-07-03T05:09:28.826Z,16.60
2017-07-03T05:11:57.295Z,16.60
2017-07-03T05:14:25.806Z,16.60
2017-07-03T05:16:54.226Z,16.70
2017-07-03T05:19:22.712Z,16.70
2017-07-03T05:21:51.159Z,16.80
2017-07-03T05:24:19.614Z,16.90
2017-07-03T05:26:48.158Z,17.00
2017-07-03T05:29:16.611Z,17.30
2017-07-03T05:31:45.140Z,17.60
2017-07-03T05:34:13.596Z,17.90
2017-07-03T05:36:43.934Z,18.20
2017-07-03T05:39:12.478Z,18.70
2017-07-03T05:41:41.324Z,18.90
2017-07-03T05:44:15.338Z,19.00
2017-07-03T05:46:43.861Z,19.20
2017-07-03T05:49:13.438Z,19.40
2017-07-03T05:51:42.048Z,19.40
2017-07-03T05:54:20.911Z,19.50
2017-07-03T05:57:12.507Z,19.30
2017-07-03T05:59:40.845Z,19.10
2017-07-03T06:02:09.603Z,19.00
2017-07-03T06:04:38.139Z,19.10
2017-07-03T06:07:06.999Z,19.60
2017-07-03T06:09:35.488Z,20.30
2017-07-03T06:12:03.971Z,20.80
2017-07-03T06:14:32.482Z,21.60
2017-07-03T06:17:00.975Z,22.30
2017-07-03T06:19:29.583Z,22.90
2017-07-03T06:21:58.126Z,23.10
2017-07-03T06:24:34.195Z,23.10
2017-07-03T06:27:02.676Z,23.10
2017-07-03T06:29:31.151Z,23.20
2017-07-03T06:31:59.672Z,23.70
2017-07-03T06:34:32.084Z,24.70
2017-07-03T06:37:00.603Z,24.70
2017-07-03T06:39:29.157Z,25.50
2017-07-03T06:41:57.673Z,25.60
2017-07-03T06:44:26.202Z,25.60
2017-07-03T06:46:56.366Z,26.00
2017-07-03T06:49:24.846Z,25.30
2017-07-03T06:51:53.399Z,25.40
2017-07-03T06:54:21.957Z,26.00
2017-07-03T06:56:50.495Z,26.30
2017-07-03T06:59:19.029Z,26.70
2017-07-03T07:01:47.567Z,27.20
2017-07-03T07:04:16.043Z,27.50
2017-07-03T07:06:44.502Z,27.70
2017-07-03T07:09:13.074Z,28.30
2017-07-03T07:11:41.602Z,28.20
2017-07-03T07:14:10.146Z,28.40
2017-07-03T07:16:38.922Z,29.30
2017-07-03T07:19:07.478Z,29.50
2017-07-03T07:21:35.963Z,30.50
2017-07-03T07:24:43.146Z,29.50
2017-07-03T07:27:11.641Z,30.20
2017-07-03T07:29:40.145Z,29.90
2017-07-03T07:32:08.660Z,29.60
2017-07-03T07:34:37.205Z,28.80
2017-07-03T07:37:05.723Z,28.00
2017-07-03T07:39:34.252Z,28.90
2017-07-03T07:42:02.768Z,29.40
2017-07-03T07:44:31.280Z,29.60
2017-07-03T07:46:59.794Z,30.00
2017-07-03T07:49:28.299Z,30.70
2017-07-03T07:51:56.776Z,30.10
2017-07-03T07:54:25.393Z,29.90
2017-07-03T07:56:53.907Z,29.90
2017-07-03T07:59:22.574Z,29.90
2017-07-03T08:01:51.412Z,29.60
2017-07-03T08:04:19.917Z,28.50
2017-07-03T08:06:48.403Z,27.90
2017-07-03T08:09:16.912Z,27.90
2017-07-03T08:11:45.412Z,27.70
2017-07-03T08:14:13.870Z,27.40
2017-07-03T08:16:46.082Z,28.00
2017-07-03T08:19:14.651Z,28.70
2017-07-03T08:21:43.112Z,29.50
2017-07-03T08:24:11.645Z,30.30
2017-07-03T08:26:43.012Z,31.00
2017-07-03T08:29:11.523Z,31.70
2017-07-03T08:31:40.088Z,32.40
2017-07-03T08:34:08.597Z,31.90
2017-07-03T08:36:37.190Z,30.00
2017-07-03T08:39:05.462Z,29.70
2017-07-03T08:41:34.639Z,28.70
2017-07-03T08:44:03.372Z,28.20
2017-07-03T08:46:31.874Z,26.80
2017-07-03T08:49:00.053Z,26.60
2017-07-03T08:51:28.551Z,26.10
2017-07-03T08:53:57.108Z,25.60
2017-07-03T08:56:25.599Z,25.00
2017-07-03T08:58:55.154Z,24.50
2017-07-03T09:01:23.737Z,24.50
2017-07-03T09:03:52.246Z,24.50
2017-07-03T09:06:21.539Z,24.90
2017-07-03T09:08:50.905Z,25.10
2017-07-03T09:11:19.431Z,25.00
2017-07-03T09:13:47.956Z,25.20
2017-07-03T09:16:16.465Z,25.20
2017-07-03T09:18:45.102Z,25.20
2017-07-03T09:21:13.608Z,24.90
2017-07-03T09:23:42.157Z,24.40
2017-07-03T09:26:10.679Z,24.00
2017-07-03T09:28:39.145Z,23.40
2017-07-03T09:31:07.704Z,23.20
2017-07-03T09:33:36.185Z,22.90
2017-07-03T09:36:04.686Z,22.80
2017-07-03T09:38:33.329Z,22.80
2017-07-03T09:41:01.797Z,23.00
2017-07-03T09:43:31.147Z,23.20
2017-07-03T09:45:59.703Z,23.20
2017-07-03T09:48:28.215Z,23.00
2017-07-03T09:50:57.470Z,23.60
2017-07-03T09:53:25.999Z,23.70
2017-07-03T09:55:55.233Z,23.80
2017-07-03T09:58:23.764Z,23.90
2017-07-03T10:00:52.324Z,23.70
2017-07-03T10:03:20.597Z,23.80
2017-07-03T10:05:49.082Z,24.30
2017-07-03T10:08:17.622Z,24.60
2017-07-03T10:10:46.161Z,24.50
2017-07-03T10:13:17.603Z,24.50
2017-07-03T10:15:46.847Z,24.70
2017-07-03T10:18:15.355Z,25.40
2017-07-03T10:20:43.846Z,25.50
2017-07-03T10:23:12.394Z,26.20
2017-07-03T10:25:40.990Z,26.30
2017-07-03T10:28:10.344Z,26.20
2017-07-03T10:30:40.135Z,25.40
2017-07-03T10:33:08.606Z,25.00
2017-07-03T10:35:37.102Z,24.10
2017-07-03T10:38:05.624Z,23.80
2017-07-03T10:40:34.112Z,23.20
2017-07-03T10:43:02.640Z,22.70
2017-07-03T10:45:31.166Z,22.60
2017-07-03T10:47:59.660Z,22.20
2017-07-03T10:50:28.163Z,22.00
2017-07-03T10:52:57.339Z,21.80
2017-07-03T10:55:25.873Z,21.80
2017-07-03T10:57:54.395Z,21.70
2017-07-03T11:00:23.248Z,21.90
2017-07-03T11:02:51.832Z,21.70
2017-07-03T11:05:20.345Z,21.50
2017-07-03T11:07:48.894Z,21.70
2017-07-03T11:10:17.423Z,22.00
2017-07-03T11:12:45.891Z,22.30
2017-07-03T11:15:14.368Z,22.80
2017-07-03T11:17:42.946Z,23.50
2017-07-03T11:20:11.550Z,24.20
2017-07-03T11:22:40.118Z,24.20
2017-07-03T11:25:08.618Z,24.40
2017-07-03T11:27:37.875Z,23.80
2017-07-03T11:30:06.397Z,23.90
2017-07-03T11:32:35.632Z,23.40
2017-07-03T11:35:04.213Z,23.20
2017-07-03T11:37:32.766Z,22.90
2017-07-03T11:40:01.463Z,23.00
2017-07-03T11:42:29.952Z,22.90
2017-07-03T11:44:58.455Z,22.90
2017-07-03T11:47:26.972Z,23.10
2017-07-03T11:49:55.562Z,23.60
2017-07-03T11:52:24.395Z,24.80
2017-07-03T11:54:52.931Z,26.00
2017-07-03T11:57:21.432Z,26.30
2017-07-03T11:59:49.968Z,25.30
2017-07-03T12:02:18.514Z,24.70
2017-07-03T12:04:47.045Z,25.00
2017-07-03T12:07:19.443Z,25.50
2017-07-03T12:09:57.375Z,25.60
2017-07-03T12:12:27.579Z,25.40
2017-07-03T12:14:56.111Z,25.30
2017-07-03T12:17:31.633Z,25.30
2017-07-03T12:20:00.227Z,26.20
2017-07-03T12:22:30.654Z,26.90
2017-07-03T12:24:59.234Z,27.10
2017-07-03T12:27:27.732Z,27.00
2017-07-03T12:29:57.623Z,26.70
2017-07-03T12:32:27.233Z,26.70
2017-07-03T12:34:56.121Z,27.00
2017-07-03T12:37:24.658Z,27.50
2017-07-03T12:39:53.938Z,26.50
2017-07-03T12:42:23.227Z,26.50
2017-07-03T12:44:51.727Z,26.90
2017-07-03T12:47:29.269Z,26.80
2017-07-03T12:49:57.804Z,26.60
2017-07-03T12:55:01.125Z,26.70
2017-07-03T12:57:29.752Z,26.90
2017-07-03T12:59:58.333Z,26.00
2017-07-03T13:02:26.844Z,25.10
2017-07-03T13:04:55.431Z,25.70
2017-07-03T13:07:23.953Z,26.30
2017-07-03T13:09:53.243Z,26.30
2017-07-03T13:12:21.761Z,26.30
2017-07-03T13:14:50.285Z,26.40
2017-07-03T13:17:18.816Z,25.90
2017-07-03T13:19:47.307Z,25.60
2017-07-03T13:22:15.974Z,25.50
2017-07-03T13:24:44.508Z,25.50
2017-07-03T13:27:13.140Z,25.90
2017-07-03T13:29:42.476Z,26.60
2017-07-03T13:32:11.029Z,26.50
2017-07-03T13:34:39.730Z,26.80
2017-07-03T13:37:08.284Z,26.80
2017-07-03T13:42:15.280Z,26.10
2017-07-03T13:44:43.764Z,26.10
2017-07-03T13:47:12.257Z,26.20
2017-07-03T13:49:40.835Z,26.20
2017-07-03T13:52:11.230Z,25.80
2017-07-03T13:54:39.715Z,25.50
2017-07-03T13:57:08.238Z,25.50
2017-07-03T13:59:44.967Z,25.50
2017-07-03T14:02:16.122Z,25.70
2017-07-03T14:04:45.483Z,25.50
2017-07-03T14:07:15.324Z,25.30
2017-07-03T14:09:43.865Z,25.30
2017-07-03T14:12:12.339Z,25.20
2017-07-03T14:14:41.691Z,25.60
2017-07-03T14:17:10.191Z,25.50
2017-07-03T14:19:38.954Z,25.30
2017-07-03T14:22:08.338Z,25.30
2017-07-03T14:24:37.811Z,25.60
2017-07-03T14:27:06.309Z,25.60
2017-07-03T14:29:35.489Z,25.70
2017-07-03T14:32:04.132Z,25.20
2017-07-03T14:34:32.627Z,24.90
2017-07-03T14:37:01.239Z,24.90
2017-07-03T14:39:31.174Z,25.40
2017-07-03T14:41:59.675Z,25.60
2017-07-03T14:44:28.623Z,24.70
2017-07-03T14:46:57.474Z,24.60
2017-07-03T14:49:26.059Z,24.80
2017-07-03T14:51:54.614Z,25.40
2017-07-03T14:54:23.166Z,25.50
2017-07-03T14:56:51.690Z,25.60
2017-07-03T14:59:20.169Z,25.20
2017-07-03T15:01:50.266Z,25.50
2017-07-03T15:04:18.771Z,25.50
2017-07-03T15:06:47.342Z,25.50
2017-07-03T15:09:16.132Z,25.40
2017-07-03T15:11:47.344Z,25.30
2017-07-03T15:14:16.096Z,25.30
2017-07-03T15:16:44.840Z,25.30
2017-07-03T15:19:14.342Z,25.10
2017-07-03T15:21:42.911Z,25.10
2017-07-03T15:28:32.854Z,24.90
2017-07-03T15:31:02.688Z,24.80
2017-07-03T15:33:39.308Z,24.70
2017-07-03T15:36:08.006Z,24.60
2017-07-03T15:38:37.575Z,24.70
2017-07-03T15:41:06.091Z,24.70
2017-07-03T15:43:34.709Z,24.70
2017-07-03T15:46:07.696Z,24.80
2017-07-03T15:48:36.380Z,24.60
2017-07-03T15:51:04.905Z,24.50
2017-07-03T15:53:34.232Z,24.30
2017-07-03T15:56:04.899Z,24.20
2017-07-03T15:58:35.627Z,24.20
2017-07-03T16:01:15.060Z,23.80
2017-07-03T16:03:44.091Z,23.20
2017-07-03T16:06:14.485Z,22.70
2017-07-03T16:08:43.144Z,22.30
2017-07-03T16:11:11.661Z,22.20
2017-07-03T16:13:40.225Z,22.30
2017-07-03T16:16:08.858Z,22.70
2017-07-03T16:18:37.347Z,22.90
2017-07-03T16:21:05.854Z,23.10
2017-07-03T16:23:34.403Z,23.10
2017-07-03T16:26:02.935Z,23.20
2017-07-03T16:28:31.472Z,23.40
2017-07-03T16:31:14.996Z,23.30
2017-07-03T16:33:43.629Z,23.50
2017-07-03T16:38:55.446Z,23.30
2017-07-03T16:41:24.323Z,23.10
2017-07-03T16:43:52.826Z,23.20
2017-07-03T16:46:22.730Z,23.10
2017-07-03T16:48:51.331Z,22.90
2017-07-03T16:51:21.522Z,22.90
2017-07-03T16:53:50.036Z,22.80
2017-07-03T16:56:18.590Z,22.70
2017-07-03T16:59:04.591Z,22.50
2017-07-03T17:01:33.270Z,22.30
2017-07-03T17:07:19.088Z,22.10
2017-07-03T17:12:35.057Z,22.00
2017-07-03T17:15:29.675Z,21.90
2017-07-03T17:17:58.228Z,21.80
2017-07-03T17:20:26.742Z,21.70
2017-07-03T17:23:03.470Z,21.60
2017-07-03T17:25:32.003Z,21.50
2017-07-03T17:28:00.545Z,21.40
2017-07-03T17:30:29.105Z,21.30
2017-07-03T17:32:57.655Z,21.10
2017-07-03T17:35:26.229Z,21.10
2017-07-03T17:37:55.133Z,20.90
2017-07-03T17:40:23.851Z,20.80
2017-07-03T17:42:52.370Z,20.70
2017-07-03T17:45:20.955Z,20.60
2017-07-03T17:47:49.485Z,20.50
2017-07-03T17:50:18.768Z,20.10
2017-07-03T17:52:47.333Z,20.10
2017-07-03T17:55:15.901Z,19.80
2017-07-03T17:57:44.389Z,19.50
2017-07-03T18:00:13.029Z,19.30
2017-07-03T18:02:41.492Z,19.10
2017-07-03T18:05:10.343Z,18.80
2017-07-03T18:07:38.931Z,18.60
2017-07-03T18:10:07.398Z,18.40
2017-07-03T18:12:35.933Z,18.20
2017-07-03T18:15:05.394Z,18.10
2017-07-03T18:17:35.087Z,17.90
2017-07-03T18:20:03.702Z,17.80
2017-07-03T18:22:32.272Z,17.60
2017-07-03T18:25:00.840Z,17.50
2017-07-03T18:27:44.929Z,17.30
2017-07-03T18:30:13.772Z,17.30
2017-07-03T18:32:44.851Z,17.10
2017-07-03T18:35:14.618Z,17.00
2017-07-03T18:37:43.077Z,16.90
2017-07-03T18:40:11.923Z,16.80
2017-07-03T18:42:40.465Z,16.70
2017-07-03T18:45:09.070Z,16.50
2017-07-03T18:47:37.645Z,16.50
2017-07-03T18:50:06.141Z,16.40
2017-07-03T18:52:34.643Z,16.40
2017-07-03T18:55:03.158Z,16.30
2017-07-03T18:57:31.603Z,16.20
2017-07-03T19:00:00.056Z,16.10
2017-07-03T19:02:29.592Z,15.90
2017-07-03T19:04:58.138Z,15.80
2017-07-03T19:07:26.648Z,15.70
2017-07-03T19:09:55.243Z,15.60
2017-07-03T19:12:24.090Z,15.60
2017-07-03T19:14:52.644Z,15.50
2017-07-03T19:17:21.362Z,15.30
2017-07-03T19:19:49.807Z,15.30
2017-07-03T19:22:18.321Z,15.20
2017-07-03T19:24:47.199Z,15.10
2017-07-03T19:27:15.697Z,15.00
2017-07-03T19:29:44.160Z,14.80
2017-07-03T19:32:12.696Z,14.70
2017-07-03T19:34:41.592Z,14.60
2017-07-03T19:37:10.147Z,14.50
2017-07-03T19:39:39.113Z,14.30
2017-07-03T19:42:07.601Z,14.30
2017-07-03T19:44:36.088Z,14.30
2017-07-03T19:47:06.344Z,14.20
2017-07-03T19:49:34.950Z,14.00
2017-07-03T19:52:03.434Z,13.90
2017-07-03T19:54:32.045Z,13.80
2017-07-03T19:57:00.535Z,13.70
2017-07-03T19:59:29.040Z,13.60
2017-07-03T20:01:57.718Z,13.60
2017-07-03T20:04:26.252Z,13.50
2017-07-03T20:06:54.821Z,13.50
2017-07-03T20:09:23.335Z,13.50
2017-07-03T20:11:51.931Z,13.40
2017-07-03T20:14:20.450Z,13.40
2017-07-03T20:16:50.339Z,13.30
2017-07-03T20:19:18.816Z,13.20
2017-07-03T20:21:47.385Z,13.10
2017-07-03T20:24:15.953Z,13.00
2017-07-03T20:26:44.550Z,13.00
2017-07-03T20:29:13.832Z,13.10
2017-07-03T20:31:42.436Z,12.90
2017-07-03T20:36:57.745Z,12.80
2017-07-03T20:39:28.163Z,12.80
2017-07-03T20:41:56.697Z,12.90
2017-07-03T20:44:26.888Z,12.80
2017-07-03T20:46:55.405Z,12.80
2017-07-03T20:49:24.991Z,12.80
2017-07-03T20:51:56.902Z,12.80
2017-07-03T20:55:04.392Z,12.90
2017-07-03T20:57:32.964Z,12.70
2017-07-03T21:00:01.779Z,12.70
2017-07-03T21:02:31.128Z,12.50
2017-07-03T21:05:02.631Z,12.50
2017-07-03T21:10:19.023Z,12.40
2017-07-03T21:13:05.326Z,12.40
2017-07-03T21:20:16.412Z,12.30
2017-07-03T21:22:46.259Z,12.20
2017-07-03T21:25:15.040Z,12.20
2017-07-03T21:27:43.845Z,12.20
2017-07-03T21:30:13.594Z,12.10
2017-07-03T21:32:42.442Z,12.20
2017-07-03T21:35:11.243Z,12.20
2017-07-03T21:37:40.100Z,12.10
2017-07-03T21:40:08.832Z,12.10
2017-07-03T21:42:38.051Z,11.90
2017-07-03T21:45:06.791Z,11.90
2017-07-03T21:47:35.591Z,11.80
2017-07-03T21:50:04.333Z,11.70
2017-07-03T21:52:33.222Z,11.70
2017-07-03T21:55:02.053Z,11.80
2017-07-03T21:57:30.912Z,11.90
2017-07-03T21:59:59.664Z,11.90
2017-07-03T22:02:28.505Z,11.80
2017-07-03T22:04:57.713Z,11.80
2017-07-03T22:07:26.529Z,11.70
2017-07-03T22:09:56.336Z,11.70
2017-07-03T22:12:25.199Z,11.70
2017-07-03T22:14:54.120Z,11.70
2017-07-03T22:17:22.866Z,11.70
2017-07-03T22:19:51.703Z,11.60
2017-07-03T22:22:20.593Z,11.50
2017-07-03T22:24:49.374Z,11.50
2017-07-03T22:27:18.183Z,11.40
2017-07-03T22:29:46.945Z,11.50
2017-07-03T22:32:15.728Z,11.40
2017-07-03T22:34:44.532Z,11.40
2017-07-03T22:37:13.374Z,11.40
2017-07-03T22:39:42.180Z,11.40
2017-07-03T22:42:11.022Z,11.60
2017-07-03T22:44:40.533Z,11.70
2017-07-03T22:47:10.032Z,11.90
2017-07-03T22:49:38.963Z,11.90
2017-07-03T22:52:07.754Z,11.90
2017-07-03T22:54:36.539Z,11.90
2017-07-03T22:57:05.626Z,11.70
2017-07-03T22:59:34.437Z,11.70
2017-07-03T23:02:03.263Z,11.60
2017-07-03T23:04:33.085Z,11.50
2017-07-03T23:07:01.852Z,11.50
2017-07-03T23:09:31.391Z,11.40
2017-07-03T23:12:00.183Z,11.30
2017-07-03T23:14:28.984Z,11.30
2017-07-03T23:16:57.793Z,11.30
2017-07-03T23:19:26.807Z,11.30
2017-07-03T23:21:56.181Z,11.10
2017-07-03T23:24:24.622Z,11.10
2017-07-03T23:26:53.502Z,11.00
2017-07-03T23:29:22.271Z,10.90
2017-07-03T23:31:51.279Z,10.90
2017-07-03T23:34:20.071Z,10.80
2017-07-03T23:36:48.890Z,10.80
2017-07-03T23:39:17.752Z,10.70
2017-07-03T23:41:46.605Z,10.70
2017-07-03T23:44:15.404Z,10.70
2017-07-03T23:46:44.190Z,10.70
2017-07-03T23:49:13.063Z,10.70
2017-07-03T23:51:41.859Z,10.70
2017-07-03T23:54:10.622Z,10.70
2017-07-03T23:56:39.489Z,10.70
2017-07-03T23:59:08.305Z,10.60
